sensor_id;sensor_type;location;lat;lon;timestamp;temperature;humidity
30520;DHT22;17300;50.374;8.006;2024-03-08T00:02:35;10.80;37.20
30520;DHT22;17300;50.374;8.006;2024-03-08T00:05:03;10.70;37.20
30520;DHT22;17300;50.374;8.006;2024-03-08T00:07:30;10.70;37.20
30520;DHT22;17300;50.374;8.006;2024-03-08T00:09:57;10.80;37.40
30520;DHT22;17300;50.374;8.006;2024-03-08T00:12:24;10.70;37.30
30520;DHT22;17300;50.374;8.006;2024-03-08T00:14:51;10.70;37.30
30520;DHT22;17300;50.374;8.006;2024-03-08T00:17:18;10.70;37.40
30520;DHT22;17300;50.374;8.006;2024-03-08T00:19:44;10.70;37.40
30520;DHT22;17300;50.374;8.006;2024-03-08T00:22:12;10.60;37.40
30520;DHT22;17300;50.374;8.006;2024-03-08T00:24:39;10.60;37.50
30520;DHT22;17300;50.374;8.006;2024-03-08T00:27:06;10.60;37.50
30520;DHT22;17300;50.374;8.006;2024-03-08T00:29:34;10.60;37.50
30520;DHT22;17300;50.374;8.006;2024-03-08T00:32:01;10.60;37.50
30520;DHT22;17300;50.374;8.006;2024-03-08T00:34:28;10.50;37.50
30520;DHT22;17300;50.374;8.006;2024-03-08T00:36:54;10.50;37.50
30520;DHT22;17300;50.374;8.006;2024-03-08T00:39:22;10.50;37.60
30520;DHT22;17300;50.374;8.006;2024-03-08T00:41:49;10.50;37.60
30520;DHT22;17300;50.374;8.006;2024-03-08T00:44:16;10.50;37.60
30520;DHT22;17300;50.374;8.006;2024-03-08T00:46:42;10.50;37.60
30520;DHT22;17300;50.374;8.006;2024-03-08T00:49:09;10.40;37.60
30520;DHT22;17300;50.374;8.006;2024-03-08T00:51:38;10.40;37.60
30520;DHT22;17300;50.374;8.006;2024-03-08T00:54:04;10.40;37.70
30520;DHT22;17300;50.374;8.006;2024-03-08T00:56:32;10.40;37.70
30520;DHT22;17300;50.374;8.006;2024-03-08T00:59:00;10.40;37.80
30520;DHT22;17300;50.374;8.006;2024-03-08T01:01:27;10.40;37.80
30520;DHT22;17300;50.374;8.006;2024-03-08T01:03:55;10.30;37.80
30520;DHT22;17300;50.374;8.006;2024-03-08T01:06:22;10.30;37.80
30520;DHT22;17300;50.374;8.006;2024-03-08T01:08:49;10.30;37.90
30520;DHT22;17300;50.374;8.006;2024-03-08T01:11:17;10.30;37.90
30520;DHT22;17300;50.374;8.006;2024-03-08T01:13:45;10.30;37.90
30520;DHT22;17300;50.374;8.006;2024-03-08T01:16:13;10.30;37.90
30520;DHT22;17300;50.374;8.006;2024-03-08T01:18:39;10.30;37.90
30520;DHT22;17300;50.374;8.006;2024-03-08T01:21:06;10.20;37.90
30520;DHT22;17300;50.374;8.006;2024-03-08T01:23:33;10.20;37.90
30520;DHT22;17300;50.374;8.006;2024-03-08T01:26:00;10.20;37.90
30520;DHT22;17300;50.374;8.006;2024-03-08T01:28:28;10.20;37.90
30520;DHT22;17300;50.374;8.006;2024-03-08T01:30:56;10.20;37.90
30520;DHT22;17300;50.374;8.006;2024-03-08T01:33:23;10.10;37.90
30520;DHT22;17300;50.374;8.006;2024-03-08T01:35:50;10.10;37.90
30520;DHT22;17300;50.374;8.006;2024-03-08T01:38:18;10.10;37.90
30520;DHT22;17300;50.374;8.006;2024-03-08T01:40:46;10.00;37.90
30520;DHT22;17300;50.374;8.006;2024-03-08T01:43:19;10.00;37.90
30520;DHT22;17300;50.374;8.006;2024-03-08T01:45:46;10.00;38.00
30520;DHT22;17300;50.374;8.006;2024-03-08T01:48:15;10.00;38.00
30520;DHT22;17300;50.374;8.006;2024-03-08T01:50:43;10.00;38.00
30520;DHT22;17300;50.374;8.006;2024-03-08T01:53:10;10.00;38.70
30520;DHT22;17300;50.374;8.006;2024-03-08T01:55:38;9.90;39.50
30520;DHT22;17300;50.374;8.006;2024-03-08T01:58:05;9.90;38.90
30520;DHT22;17300;50.374;8.006;2024-03-08T02:00:32;9.90;39.00
30520;DHT22;17300;50.374;8.006;2024-03-08T02:03:00;9.90;39.00
30520;DHT22;17300;50.374;8.006;2024-03-08T02:05:29;9.90;39.00
30520;DHT22;17300;50.374;8.006;2024-03-08T02:07:56;9.80;39.00
30520;DHT22;17300;50.374;8.006;2024-03-08T02:10:22;9.80;38.90
30520;DHT22;17300;50.374;8.006;2024-03-08T02:12:49;9.80;39.00
30520;DHT22;17300;50.374;8.006;2024-03-08T02:15:16;9.80;39.10
30520;DHT22;17300;50.374;8.006;2024-03-08T02:17:43;9.80;39.10
30520;DHT22;17300;50.374;8.006;2024-03-08T02:20:10;9.70;39.00
30520;DHT22;17300;50.374;8.006;2024-03-08T02:22:40;9.70;39.00
30520;DHT22;17300;50.374;8.006;2024-03-08T02:25:08;9.70;39.00
30520;DHT22;17300;50.374;8.006;2024-03-08T02:27:35;9.70;39.10
30520;DHT22;17300;50.374;8.006;2024-03-08T02:30:01;9.70;39.10
30520;DHT22;17300;50.374;8.006;2024-03-08T02:32:28;9.70;39.10
30520;DHT22;17300;50.374;8.006;2024-03-08T02:34:56;9.70;39.20
30520;DHT22;17300;50.374;8.006;2024-03-08T02:37:25;9.60;39.10
30520;DHT22;17300;50.374;8.006;2024-03-08T02:39:54;9.70;39.20
30520;DHT22;17300;50.374;8.006;2024-03-08T02:42:21;9.60;39.90
30520;DHT22;17300;50.374;8.006;2024-03-08T02:44:48;9.60;39.20
30520;DHT22;17300;50.374;8.006;2024-03-08T02:47:14;9.60;39.20
30520;DHT22;17300;50.374;8.006;2024-03-08T02:49:41;9.60;39.20
30520;DHT22;17300;50.374;8.006;2024-03-08T02:52:08;9.60;39.20
30520;DHT22;17300;50.374;8.006;2024-03-08T02:54:34;9.60;39.30
30520;DHT22;17300;50.374;8.006;2024-03-08T02:57:03;9.60;39.30
30520;DHT22;17300;50.374;8.006;2024-03-08T02:59:32;9.60;39.30
30520;DHT22;17300;50.374;8.006;2024-03-08T03:01:59;9.50;39.20
30520;DHT22;17300;50.374;8.006;2024-03-08T03:04:25;9.60;39.30
30520;DHT22;17300;50.374;8.006;2024-03-08T03:06:53;9.50;39.20
30520;DHT22;17300;50.374;8.006;2024-03-08T03:09:20;9.50;39.30
30520;DHT22;17300;50.374;8.006;2024-03-08T03:11:49;9.50;39.30
30520;DHT22;17300;50.374;8.006;2024-03-08T03:14:17;9.50;39.30
30520;DHT22;17300;50.374;8.006;2024-03-08T03:16:44;9.50;39.30
30520;DHT22;17300;50.374;8.006;2024-03-08T03:19:11;9.50;39.30
30520;DHT22;17300;50.374;8.006;2024-03-08T03:21:38;9.50;39.30
30520;DHT22;17300;50.374;8.006;2024-03-08T03:24:05;9.50;39.30
30520;DHT22;17300;50.374;8.006;2024-03-08T03:26:35;9.50;39.30
30520;DHT22;17300;50.374;8.006;2024-03-08T03:29:02;9.40;39.20
30520;DHT22;17300;50.374;8.006;2024-03-08T03:31:32;9.40;39.20
30520;DHT22;17300;50.374;8.006;2024-03-08T03:33:59;9.40;39.20
30520;DHT22;17300;50.374;8.006;2024-03-08T03:36:28;9.40;39.20
30520;DHT22;17300;50.374;8.006;2024-03-08T03:38:55;9.40;39.20
30520;DHT22;17300;50.374;8.006;2024-03-08T03:41:30;9.40;39.20
30520;DHT22;17300;50.374;8.006;2024-03-08T03:43:57;9.40;39.20
30520;DHT22;17300;50.374;8.006;2024-03-08T03:46:24;9.30;39.10
30520;DHT22;17300;50.374;8.006;2024-03-08T03:48:53;9.30;39.20
30520;DHT22;17300;50.374;8.006;2024-03-08T03:51:20;9.30;39.20
30520;DHT22;17300;50.374;8.006;2024-03-08T03:53:47;9.30;39.20
30520;DHT22;17300;50.374;8.006;2024-03-08T03:56:14;9.30;39.20
30520;DHT22;17300;50.374;8.006;2024-03-08T03:58:40;9.30;39.20
30520;DHT22;17300;50.374;8.006;2024-03-08T04:01:08;9.30;39.40
30520;DHT22;17300;50.374;8.006;2024-03-08T04:03:35;9.30;39.30
30520;DHT22;17300;50.374;8.006;2024-03-08T04:06:03;9.20;39.30
30520;DHT22;17300;50.374;8.006;2024-03-08T04:08:30;9.20;39.40
30520;DHT22;17300;50.374;8.006;2024-03-08T04:10:59;9.20;39.40
30520;DHT22;17300;50.374;8.006;2024-03-08T04:13:26;9.20;40.00
30520;DHT22;17300;50.374;8.006;2024-03-08T04:15:53;9.20;39.50
30520;DHT22;17300;50.374;8.006;2024-03-08T04:18:19;9.20;39.60
30520;DHT22;17300;50.374;8.006;2024-03-08T04:20:46;9.10;39.50
30520;DHT22;17300;50.374;8.006;2024-03-08T04:23:14;9.10;39.50
30520;DHT22;17300;50.374;8.006;2024-03-08T04:25:43;9.10;39.60
30520;DHT22;17300;50.374;8.006;2024-03-08T04:28:09;9.00;39.50
30520;DHT22;17300;50.374;8.006;2024-03-08T04:30:37;9.00;39.60
30520;DHT22;17300;50.374;8.006;2024-03-08T04:33:05;9.00;39.60
30520;DHT22;17300;50.374;8.006;2024-03-08T04:35:31;9.00;39.70
30520;DHT22;17300;50.374;8.006;2024-03-08T04:37:58;9.00;39.70
30520;DHT22;17300;50.374;8.006;2024-03-08T04:40:26;9.00;39.70
30520;DHT22;17300;50.374;8.006;2024-03-08T04:42:53;8.90;39.60
30520;DHT22;17300;50.374;8.006;2024-03-08T04:45:19;8.90;39.70
30520;DHT22;17300;50.374;8.006;2024-03-08T04:47:47;8.90;39.70
30520;DHT22;17300;50.374;8.006;2024-03-08T04:50:13;8.90;39.70
30520;DHT22;17300;50.374;8.006;2024-03-08T04:52:40;8.80;39.70
30520;DHT22;17300;50.374;8.006;2024-03-08T04:55:07;8.80;39.80
30520;DHT22;17300;50.374;8.006;2024-03-08T04:57:35;8.80;39.80
30520;DHT22;17300;50.374;8.006;2024-03-08T05:00:02;8.80;40.00
30520;DHT22;17300;50.374;8.006;2024-03-08T05:02:36;8.80;40.00
30520;DHT22;17300;50.374;8.006;2024-03-08T05:05:04;8.80;40.00
30520;DHT22;17300;50.374;8.006;2024-03-08T05:07:32;8.80;40.10
30520;DHT22;17300;50.374;8.006;2024-03-08T05:09:59;8.70;40.00
30520;DHT22;17300;50.374;8.006;2024-03-08T05:12:25;8.70;40.10
30520;DHT22;17300;50.374;8.006;2024-03-08T05:14:53;8.70;40.10
30520;DHT22;17300;50.374;8.006;2024-03-08T05:17:20;8.70;40.10
30520;DHT22;17300;50.374;8.006;2024-03-08T05:19:49;8.70;40.10
30520;DHT22;17300;50.374;8.006;2024-03-08T05:22:16;8.70;40.10
30520;DHT22;17300;50.374;8.006;2024-03-08T05:24:42;8.70;40.20
30520;DHT22;17300;50.374;8.006;2024-03-08T05:27:09;8.70;40.20
30520;DHT22;17300;50.374;8.006;2024-03-08T05:29:36;8.70;40.20
30520;DHT22;17300;50.374;8.006;2024-03-08T05:32:04;8.70;40.30
30520;DHT22;17300;50.374;8.006;2024-03-08T05:34:32;8.70;40.30
30520;DHT22;17300;50.374;8.006;2024-03-08T05:36:59;8.70;40.30
30520;DHT22;17300;50.374;8.006;2024-03-08T05:39:25;8.60;40.30
30520;DHT22;17300;50.374;8.006;2024-03-08T05:41:52;8.70;40.40
30520;DHT22;17300;50.374;8.006;2024-03-08T05:44:20;8.70;40.40
30520;DHT22;17300;50.374;8.006;2024-03-08T05:46:47;8.70;40.40
30520;DHT22;17300;50.374;8.006;2024-03-08T05:49:15;8.70;40.50
30520;DHT22;17300;50.374;8.006;2024-03-08T05:51:42;8.70;40.60
30520;DHT22;17300;50.374;8.006;2024-03-08T05:54:09;8.70;40.50
30520;DHT22;17300;50.374;8.006;2024-03-08T05:56:36;8.70;40.60
30520;DHT22;17300;50.374;8.006;2024-03-08T05:59:03;8.60;40.50
30520;DHT22;17300;50.374;8.006;2024-03-08T06:01:30;8.70;40.60
30520;DHT22;17300;50.374;8.006;2024-03-08T06:03:57;8.60;40.50
30520;DHT22;17300;50.374;8.006;2024-03-08T06:06:26;8.60;40.50
30520;DHT22;17300;50.374;8.006;2024-03-08T06:08:52;8.60;40.60
30520;DHT22;17300;50.374;8.006;2024-03-08T06:11:22;8.60;40.50
30520;DHT22;17300;50.374;8.006;2024-03-08T06:13:49;8.60;40.50
30520;DHT22;17300;50.374;8.006;2024-03-08T06:16:16;8.60;40.60
30520;DHT22;17300;50.374;8.006;2024-03-08T06:18:42;8.60;40.70
30520;DHT22;17300;50.374;8.006;2024-03-08T06:21:09;8.60;40.70
30520;DHT22;17300;50.374;8.006;2024-03-08T06:23:38;8.60;40.70
30520;DHT22;17300;50.374;8.006;2024-03-08T06:26:05;8.60;40.90
30520;DHT22;17300;50.374;8.006;2024-03-08T06:28:32;8.60;40.90
30520;DHT22;17300;50.374;8.006;2024-03-08T06:31:00;8.60;41.00
30520;DHT22;17300;50.374;8.006;2024-03-08T06:33:27;8.60;41.00
30520;DHT22;17300;50.374;8.006;2024-03-08T06:35:54;8.60;41.00
30520;DHT22;17300;50.374;8.006;2024-03-08T06:38:22;8.60;41.10
30520;DHT22;17300;50.374;8.006;2024-03-08T06:40:50;8.60;41.30
30520;DHT22;17300;50.374;8.006;2024-03-08T06:43:17;8.60;41.20
30520;DHT22;17300;50.374;8.006;2024-03-08T06:45:44;8.60;41.20
30520;DHT22;17300;50.374;8.006;2024-03-08T06:48:14;8.60;41.20
30520;DHT22;17300;50.374;8.006;2024-03-08T06:50:40;8.60;41.20
30520;DHT22;17300;50.374;8.006;2024-03-08T06:53:07;8.60;41.30
30520;DHT22;17300;50.374;8.006;2024-03-08T06:55:33;8.70;41.40
30520;DHT22;17300;50.374;8.006;2024-03-08T06:58:02;8.70;41.40
30520;DHT22;17300;50.374;8.006;2024-03-08T07:00:28;8.70;41.50
30520;DHT22;17300;50.374;8.006;2024-03-08T07:02:55;8.70;41.50
30520;DHT22;17300;50.374;8.006;2024-03-08T07:05:26;8.80;41.70
30520;DHT22;17300;50.374;8.006;2024-03-08T07:07:52;8.80;41.70
30520;DHT22;17300;50.374;8.006;2024-03-08T07:10:20;8.80;41.80
30520;DHT22;17300;50.374;8.006;2024-03-08T07:12:49;8.80;41.80
30520;DHT22;17300;50.374;8.006;2024-03-08T07:15:17;8.90;41.90
30520;DHT22;17300;50.374;8.006;2024-03-08T07:17:45;8.90;42.00
30520;DHT22;17300;50.374;8.006;2024-03-08T07:20:12;8.90;41.90
30520;DHT22;17300;50.374;8.006;2024-03-08T07:22:41;9.00;42.10
30520;DHT22;17300;50.374;8.006;2024-03-08T07:25:09;9.00;42.10
30520;DHT22;17300;50.374;8.006;2024-03-08T07:27:47;9.10;42.20
30520;DHT22;17300;50.374;8.006;2024-03-08T07:30:14;9.10;42.10
30520;DHT22;17300;50.374;8.006;2024-03-08T07:33:04;9.20;42.20
30520;DHT22;17300;50.374;8.006;2024-03-08T07:35:32;9.30;42.30
30520;DHT22;17300;50.374;8.006;2024-03-08T07:38:02;9.30;42.30
30520;DHT22;17300;50.374;8.006;2024-03-08T07:40:30;9.40;42.40
30520;DHT22;17300;50.374;8.006;2024-03-08T07:42:56;9.50;42.70
30520;DHT22;17300;50.374;8.006;2024-03-08T07:45:24;9.50;43.00
30520;DHT22;17300;50.374;8.006;2024-03-08T07:47:50;9.60;43.10
30520;DHT22;17300;50.374;8.006;2024-03-08T07:50:20;9.70;43.20
30520;DHT22;17300;50.374;8.006;2024-03-08T07:52:48;9.80;43.40
30520;DHT22;17300;50.374;8.006;2024-03-08T07:55:15;9.90;43.20
30520;DHT22;17300;50.374;8.006;2024-03-08T07:58:11;10.10;42.40
30520;DHT22;17300;50.374;8.006;2024-03-08T08:00:39;10.10;42.30
30520;DHT22;17300;50.374;8.006;2024-03-08T08:03:26;10.40;42.70
30520;DHT22;17300;50.374;8.006;2024-03-08T08:10:09;11.10;44.20
30520;DHT22;17300;50.374;8.006;2024-03-08T08:20:14;13.10;45.90
30520;DHT22;17300;50.374;8.006;2024-03-08T08:36:18;16.50;45.40
30520;DHT22;17300;50.374;8.006;2024-03-08T08:39:12;17.30;46.20
30520;DHT22;17300;50.374;8.006;2024-03-08T08:42:10;17.90;45.10
30520;DHT22;17300;50.374;8.006;2024-03-08T08:58:07;21.00;42.60
30520;DHT22;17300;50.374;8.006;2024-03-08T09:00:38;21.50;43.80
30520;DHT22;17300;50.374;8.006;2024-03-08T09:03:54;21.90;43.10
30520;DHT22;17300;50.374;8.006;2024-03-08T09:07:09;22.50;43.00
30520;DHT22;17300;50.374;8.006;2024-03-08T09:09:46;22.90;41.10
30520;DHT22;17300;50.374;8.006;2024-03-08T09:12:12;23.40;42.10
30520;DHT22;17300;50.374;8.006;2024-03-08T09:14:41;23.70;41.20
30520;DHT22;17300;50.374;8.006;2024-03-08T09:17:07;24.00;40.30
30520;DHT22;17300;50.374;8.006;2024-03-08T09:19:34;24.30;40.00
30520;DHT22;17300;50.374;8.006;2024-03-08T09:22:02;24.60;39.60
30520;DHT22;17300;50.374;8.006;2024-03-08T09:24:29;24.90;39.20
30520;DHT22;17300;50.374;8.006;2024-03-08T09:26:56;25.10;39.30
30520;DHT22;17300;50.374;8.006;2024-03-08T09:29:24;25.30;38.00
30520;DHT22;17300;50.374;8.006;2024-03-08T09:49:36;27.10;35.30
30520;DHT22;17300;50.374;8.006;2024-03-08T09:58:23;28.10;35.40
30520;DHT22;17300;50.374;8.006;2024-03-08T10:04:30;28.60;34.10
30520;DHT22;17300;50.374;8.006;2024-03-08T10:07:12;28.80;32.60
30520;DHT22;17300;50.374;8.006;2024-03-08T10:12:58;29.30;31.40
30520;DHT22;17300;50.374;8.006;2024-03-08T10:15:36;29.40;32.50
30520;DHT22;17300;50.374;8.006;2024-03-08T10:18:20;29.50;31.40
30520;DHT22;17300;50.374;8.006;2024-03-08T10:21:02;29.50;29.60
30520;DHT22;17300;50.374;8.006;2024-03-08T10:23:31;29.50;29.50
30520;DHT22;17300;50.374;8.006;2024-03-08T10:26:10;29.50;30.30
30520;DHT22;17300;50.374;8.006;2024-03-08T10:28:36;29.60;29.40
30520;DHT22;17300;50.374;8.006;2024-03-08T10:31:03;29.70;30.40
30520;DHT22;17300;50.374;8.006;2024-03-08T10:33:31;29.90;30.30
30520;DHT22;17300;50.374;8.006;2024-03-08T10:35:59;30.00;30.00
30520;DHT22;17300;50.374;8.006;2024-03-08T10:38:26;30.20;29.50
30520;DHT22;17300;50.374;8.006;2024-03-08T10:41:22;30.20;26.60
30520;DHT22;17300;50.374;8.006;2024-03-08T10:44:13;30.20;26.10
30520;DHT22;17300;50.374;8.006;2024-03-08T10:46:53;30.10;26.80
30520;DHT22;17300;50.374;8.006;2024-03-08T10:49:28;29.80;23.20
30520;DHT22;17300;50.374;8.006;2024-03-08T10:51:57;29.60;23.40
30520;DHT22;17300;50.374;8.006;2024-03-08T10:54:25;29.60;25.30
30520;DHT22;17300;50.374;8.006;2024-03-08T10:56:54;29.60;25.80
30520;DHT22;17300;50.374;8.006;2024-03-08T10:59:22;29.50;25.50
30520;DHT22;17300;50.374;8.006;2024-03-08T11:01:52;28.90;23.00
30520;DHT22;17300;50.374;8.006;2024-03-08T11:04:19;28.90;24.60
30520;DHT22;17300;50.374;8.006;2024-03-08T11:06:50;28.70;25.30
30520;DHT22;17300;50.374;8.006;2024-03-08T11:09:28;28.70;25.60
30520;DHT22;17300;50.374;8.006;2024-03-08T11:12:21;28.70;25.50
30520;DHT22;17300;50.374;8.006;2024-03-08T11:14:49;28.70;25.60
30520;DHT22;17300;50.374;8.006;2024-03-08T11:17:16;28.80;26.00
30520;DHT22;17300;50.374;8.006;2024-03-08T11:19:48;28.80;26.00
30520;DHT22;17300;50.374;8.006;2024-03-08T11:22:21;28.80;26.10
30520;DHT22;17300;50.374;8.006;2024-03-08T11:24:50;28.80;25.70
30520;DHT22;17300;50.374;8.006;2024-03-08T11:27:16;28.80;26.00
30520;DHT22;17300;50.374;8.006;2024-03-08T11:29:44;28.80;26.00
30520;DHT22;17300;50.374;8.006;2024-03-08T11:32:12;28.70;25.90
30520;DHT22;17300;50.374;8.006;2024-03-08T11:34:42;28.60;26.00
30520;DHT22;17300;50.374;8.006;2024-03-08T11:37:12;28.70;26.20
30520;DHT22;17300;50.374;8.006;2024-03-08T11:39:40;28.80;26.40
30520;DHT22;17300;50.374;8.006;2024-03-08T11:42:07;29.00;26.50
30520;DHT22;17300;50.374;8.006;2024-03-08T11:44:35;29.10;26.70
30520;DHT22;17300;50.374;8.006;2024-03-08T11:47:08;29.40;26.50
30520;DHT22;17300;50.374;8.006;2024-03-08T11:49:35;29.70;26.00
30520;DHT22;17300;50.374;8.006;2024-03-08T11:52:03;29.90;26.30
30520;DHT22;17300;50.374;8.006;2024-03-08T11:54:32;30.20;26.20
30520;DHT22;17300;50.374;8.006;2024-03-08T11:57:00;30.40;25.80
30520;DHT22;17300;50.374;8.006;2024-03-08T11:59:27;30.60;25.70
30520;DHT22;17300;50.374;8.006;2024-03-08T12:02:04;30.70;25.50
30520;DHT22;17300;50.374;8.006;2024-03-08T12:04:31;30.80;25.00
30520;DHT22;17300;50.374;8.006;2024-03-08T12:06:59;30.90;25.20
30520;DHT22;17300;50.374;8.006;2024-03-08T12:09:28;31.00;25.10
30520;DHT22;17300;50.374;8.006;2024-03-08T12:11:54;31.00;25.00
30520;DHT22;17300;50.374;8.006;2024-03-08T12:14:21;31.00;24.90
30520;DHT22;17300;50.374;8.006;2024-03-08T12:16:50;31.00;24.80
30520;DHT22;17300;50.374;8.006;2024-03-08T12:19:18;31.00;24.80
30520;DHT22;17300;50.374;8.006;2024-03-08T12:21:45;31.10;24.70
30520;DHT22;17300;50.374;8.006;2024-03-08T12:24:15;31.10;25.30
30520;DHT22;17300;50.374;8.006;2024-03-08T12:26:45;31.30;24.70
30520;DHT22;17300;50.374;8.006;2024-03-08T12:29:17;31.40;24.80
30520;DHT22;17300;50.374;8.006;2024-03-08T12:31:46;31.70;24.50
30520;DHT22;17300;50.374;8.006;2024-03-08T12:34:13;31.90;24.70
30520;DHT22;17300;50.374;8.006;2024-03-08T12:36:52;32.10;24.70
30520;DHT22;17300;50.374;8.006;2024-03-08T12:39:56;32.40;24.10
30520;DHT22;17300;50.374;8.006;2024-03-08T12:42:58;32.60;23.80
30520;DHT22;17300;50.374;8.006;2024-03-08T12:45:25;32.80;23.70
30520;DHT22;17300;50.374;8.006;2024-03-08T12:47:52;33.00;24.20
30520;DHT22;17300;50.374;8.006;2024-03-08T12:50:19;33.20;23.90
30520;DHT22;17300;50.374;8.006;2024-03-08T12:52:47;33.30;23.60
30520;DHT22;17300;50.374;8.006;2024-03-08T12:55:15;33.50;23.50
30520;DHT22;17300;50.374;8.006;2024-03-08T12:57:42;33.60;23.50
30520;DHT22;17300;50.374;8.006;2024-03-08T13:00:09;33.80;23.40
30520;DHT22;17300;50.374;8.006;2024-03-08T13:02:39;33.90;23.10
30520;DHT22;17300;50.374;8.006;2024-03-08T13:05:06;34.00;22.90
30520;DHT22;17300;50.374;8.006;2024-03-08T13:07:35;34.10;22.70
30520;DHT22;17300;50.374;8.006;2024-03-08T13:10:05;34.20;22.70
30520;DHT22;17300;50.374;8.006;2024-03-08T13:12:32;34.20;22.50
30520;DHT22;17300;50.374;8.006;2024-03-08T13:15:00;34.20;22.40
30520;DHT22;17300;50.374;8.006;2024-03-08T13:17:27;34.20;22.30
30520;DHT22;17300;50.374;8.006;2024-03-08T13:19:54;34.30;22.20
30520;DHT22;17300;50.374;8.006;2024-03-08T13:22:23;34.20;22.00
30520;DHT22;17300;50.374;8.006;2024-03-08T13:24:50;34.20;22.00
30520;DHT22;17300;50.374;8.006;2024-03-08T13:27:19;34.20;22.00
30520;DHT22;17300;50.374;8.006;2024-03-08T13:29:46;34.20;21.80
30520;DHT22;17300;50.374;8.006;2024-03-08T13:32:14;34.10;21.70
30520;DHT22;17300;50.374;8.006;2024-03-08T13:34:41;34.10;21.60
30520;DHT22;17300;50.374;8.006;2024-03-08T13:39:35;33.90;21.50
30520;DHT22;17300;50.374;8.006;2024-03-08T13:42:06;33.80;21.50
30520;DHT22;17300;50.374;8.006;2024-03-08T13:44:36;33.70;21.50
30520;DHT22;17300;50.374;8.006;2024-03-08T13:47:03;33.60;21.50
30520;DHT22;17300;50.374;8.006;2024-03-08T13:49:30;33.50;21.50
30520;DHT22;17300;50.374;8.006;2024-03-08T13:51:58;33.30;21.50
30520;DHT22;17300;50.374;8.006;2024-03-08T13:54:25;33.20;21.50
30520;DHT22;17300;50.374;8.006;2024-03-08T13:56:55;33.10;21.30
30520;DHT22;17300;50.374;8.006;2024-03-08T13:59:22;33.00;21.30
30520;DHT22;17300;50.374;8.006;2024-03-08T14:01:51;32.80;21.30
30520;DHT22;17300;50.374;8.006;2024-03-08T14:04:17;32.70;21.20
30520;DHT22;17300;50.374;8.006;2024-03-08T14:06:44;32.60;21.30
30520;DHT22;17300;50.374;8.006;2024-03-08T14:09:11;32.50;21.40
30520;DHT22;17300;50.374;8.006;2024-03-08T14:11:42;32.40;21.30
30520;DHT22;17300;50.374;8.006;2024-03-08T14:14:09;32.30;21.30
30520;DHT22;17300;50.374;8.006;2024-03-08T14:16:37;32.30;21.20
30520;DHT22;17300;50.374;8.006;2024-03-08T14:19:06;32.20;21.20
30520;DHT22;17300;50.374;8.006;2024-03-08T14:21:35;32.10;21.20
30520;DHT22;17300;50.374;8.006;2024-03-08T14:24:05;32.10;21.30
30520;DHT22;17300;50.374;8.006;2024-03-08T14:26:32;32.10;21.40
30520;DHT22;17300;50.374;8.006;2024-03-08T14:28:59;32.00;21.40
30520;DHT22;17300;50.374;8.006;2024-03-08T14:31:26;31.90;21.40
30520;DHT22;17300;50.374;8.006;2024-03-08T14:33:53;31.90;21.30
30520;DHT22;17300;50.374;8.006;2024-03-08T14:36:22;31.90;21.40
30520;DHT22;17300;50.374;8.006;2024-03-08T14:38:51;31.90;21.30
30520;DHT22;17300;50.374;8.006;2024-03-08T14:41:18;31.80;21.00
30520;DHT22;17300;50.374;8.006;2024-03-08T14:43:44;31.70;21.00
30520;DHT22;17300;50.374;8.006;2024-03-08T14:46:12;31.60;21.00
30520;DHT22;17300;50.374;8.006;2024-03-08T14:48:42;31.60;21.10
30520;DHT22;17300;50.374;8.006;2024-03-08T14:51:12;31.40;21.10
30520;DHT22;17300;50.374;8.006;2024-03-08T14:53:44;31.40;21.30
30520;DHT22;17300;50.374;8.006;2024-03-08T14:56:12;31.30;21.40
30520;DHT22;17300;50.374;8.006;2024-03-08T14:58:42;31.20;21.40
30520;DHT22;17300;50.374;8.006;2024-03-08T15:01:09;31.00;21.40
30520;DHT22;17300;50.374;8.006;2024-03-08T15:03:36;30.90;21.40
30520;DHT22;17300;50.374;8.006;2024-03-08T15:06:04;30.70;21.40
30520;DHT22;17300;50.374;8.006;2024-03-08T15:08:34;30.50;21.60
30520;DHT22;17300;50.374;8.006;2024-03-08T15:11:02;30.30;21.50
30520;DHT22;17300;50.374;8.006;2024-03-08T15:13:29;30.10;21.50
30520;DHT22;17300;50.374;8.006;2024-03-08T15:16:05;29.90;21.40
30520;DHT22;17300;50.374;8.006;2024-03-08T15:18:33;29.80;21.60
30520;DHT22;17300;50.374;8.006;2024-03-08T15:21:02;29.60;21.50
30520;DHT22;17300;50.374;8.006;2024-03-08T15:24:55;29.40;21.50
30520;DHT22;17300;50.374;8.006;2024-03-08T15:27:32;29.20;21.70
30520;DHT22;17300;50.374;8.006;2024-03-08T15:30:13;29.00;21.40
30520;DHT22;17300;50.374;8.006;2024-03-08T15:32:58;28.80;21.30
30520;DHT22;17300;50.374;8.006;2024-03-08T15:35:28;28.50;21.40
30520;DHT22;17300;50.374;8.006;2024-03-08T15:37:57;28.40;21.70
30520;DHT22;17300;50.374;8.006;2024-03-08T15:40:26;28.20;21.80
30520;DHT22;17300;50.374;8.006;2024-03-08T15:42:56;28.00;21.80
30520;DHT22;17300;50.374;8.006;2024-03-08T15:45:24;27.80;22.00
30520;DHT22;17300;50.374;8.006;2024-03-08T15:47:52;27.60;22.00
30520;DHT22;17300;50.374;8.006;2024-03-08T15:50:20;27.30;21.80
30520;DHT22;17300;50.374;8.006;2024-03-08T15:52:48;27.10;22.40
30520;DHT22;17300;50.374;8.006;2024-03-08T15:55:16;26.90;22.00
30520;DHT22;17300;50.374;8.006;2024-03-08T15:57:46;26.70;22.00
30520;DHT22;17300;50.374;8.006;2024-03-08T16:00:15;26.40;22.00
30520;DHT22;17300;50.374;8.006;2024-03-08T16:02:56;26.20;22.10
30520;DHT22;17300;50.374;8.006;2024-03-08T16:05:22;26.00;22.10
30520;DHT22;17300;50.374;8.006;2024-03-08T16:07:49;25.70;22.10
30520;DHT22;17300;50.374;8.006;2024-03-08T16:10:16;25.40;22.00
30520;DHT22;17300;50.374;8.006;2024-03-08T16:12:42;25.20;22.10
30520;DHT22;17300;50.374;8.006;2024-03-08T16:15:11;24.90;22.20
30520;DHT22;17300;50.374;8.006;2024-03-08T16:17:37;24.60;22.30
30520;DHT22;17300;50.374;8.006;2024-03-08T16:20:06;24.40;22.90
30520;DHT22;17300;50.374;8.006;2024-03-08T16:22:36;24.10;22.30
30520;DHT22;17300;50.374;8.006;2024-03-08T16:25:04;23.90;22.30
30520;DHT22;17300;50.374;8.006;2024-03-08T16:27:35;23.60;22.40
30520;DHT22;17300;50.374;8.006;2024-03-08T16:30:03;23.30;22.40
30520;DHT22;17300;50.374;8.006;2024-03-08T16:32:35;23.10;22.40
30520;DHT22;17300;50.374;8.006;2024-03-08T16:35:03;22.90;22.50
30520;DHT22;17300;50.374;8.006;2024-03-08T16:37:32;22.60;22.50
30520;DHT22;17300;50.374;8.006;2024-03-08T16:39:59;22.40;22.60
30520;DHT22;17300;50.374;8.006;2024-03-08T16:42:26;22.20;22.70
30520;DHT22;17300;50.374;8.006;2024-03-08T16:44:53;22.00;22.90
30520;DHT22;17300;50.374;8.006;2024-03-08T16:47:19;21.80;22.90
30520;DHT22;17300;50.374;8.006;2024-03-08T16:49:49;21.60;23.10
30520;DHT22;17300;50.374;8.006;2024-03-08T16:52:16;21.40;23.10
30520;DHT22;17300;50.374;8.006;2024-03-08T16:54:44;21.20;23.20
30520;DHT22;17300;50.374;8.006;2024-03-08T16:57:11;21.00;23.20
30520;DHT22;17300;50.374;8.006;2024-03-08T16:59:39;20.90;23.40
30520;DHT22;17300;50.374;8.006;2024-03-08T17:02:06;20.70;23.40
30520;DHT22;17300;50.374;8.006;2024-03-08T17:04:35;20.50;23.40